createdAt,value
2023-04-24T00:03:04.283Z,1.95
2023-04-24T00:08:07.965Z,1.60
2023-04-24T00:13:11.453Z,1.95
2023-04-24T00:18:16.362Z,1.60
2023-04-24T00:23:19.869Z,1.88
2023-04-24T00:28:23.400Z,2.15
2023-04-24T00:33:28.384Z,2.00
2023-04-24T00:38:32.252Z,2.30
2023-04-24T00:43:35.873Z,1.92
2023-04-24T00:48:41.646Z,1.90
2023-04-24T00:53:45.373Z,1.83
2023-04-24T00:58:49.072Z,1.90
2023-04-24T01:03:54.691Z,1.73
2023-04-24T01:08:58.385Z,1.92
2023-04-24T01:14:02.860Z,1.90
2023-04-24T01:19:08.549Z,2.00
2023-04-24T01:24:14.825Z,1.83
2023-04-24T01:29:18.413Z,2.30
2023-04-24T01:34:22.330Z,2.15
2023-04-24T01:39:29.515Z,2.00
2023-04-24T01:44:33.464Z,2.28
2023-04-24T01:49:37.189Z,2.20
2023-04-24T01:54:43.909Z,2.30
2023-04-24T01:59:47.411Z,2.30
2023-04-24T02:04:52.003Z,1.90
2023-04-24T02:09:57.238Z,1.80
2023-04-24T02:15:00.841Z,1.77
2023-04-24T02:20:04.681Z,1.75
2023-04-24T02:25:10.809Z,1.73
2023-04-24T02:30:14.690Z,1.20
2023-04-24T02:35:18.553Z,1.30
2023-04-24T02:40:23.614Z,1.17
2023-04-24T02:45:27.127Z,1.38
2023-04-24T02:50:31.003Z,1.30
2023-04-24T02:55:36.666Z,1.25
2023-04-24T03:00:40.674Z,1.58
2023-04-24T03:05:44.286Z,1.20
2023-04-24T03:10:49.228Z,1.02
2023-04-24T03:15:52.964Z,1.25
2023-04-24T03:20:57.416Z,1.00
2023-04-24T03:26:03.393Z,1.10
2023-04-24T03:31:07.985Z,1.50
2023-04-24T03:36:13.515Z,1.15
2023-04-24T03:41:19.967Z,1.17
2023-04-24T03:46:27.233Z,1.10
2023-04-24T03:51:34.890Z,1.17
2023-04-24T03:56:49.247Z,1.45
2023-04-24T04:01:53.807Z,1.10
2023-04-24T04:06:57.915Z,1.02
2023-04-24T04:12:04.413Z,1.20
2023-04-24T04:17:10.065Z,1.10
2023-04-24T04:22:14.025Z,1.10
2023-04-24T04:27:26.547Z,1.00
2023-04-24T04:32:41.081Z,0.90
2023-04-24T04:37:45.597Z,0.85
2023-04-24T04:43:01.574Z,1.02
2023-04-24T04:48:14.944Z,1.17
2023-04-24T04:53:19.568Z,0.82
2023-04-24T04:58:25.011Z,1.08
2023-04-24T05:03:33.235Z,1.20
2023-04-24T05:08:42.103Z,1.00
2023-04-24T05:13:52.534Z,1.10
2023-04-24T05:19:01.873Z,0.88
2023-04-24T05:24:11.355Z,1.10
2023-04-24T05:29:46.060Z,1.20
2023-04-24T05:34:50.703Z,0.98
2023-04-24T05:39:54.350Z,1.15
2023-04-24T05:44:59.239Z,1.10
2023-04-24T05:50:04.030Z,1.23
2023-04-24T05:55:08.692Z,1.35
2023-04-24T06:00:16.994Z,1.25
2023-04-24T06:05:28.027Z,0.98
2023-04-24T06:10:31.890Z,1.10
2023-04-24T06:15:37.472Z,1.25
2023-04-24T06:20:46.706Z,0.98
2023-04-24T06:25:51.074Z,1.13
2023-04-24T06:30:56.912Z,0.93
2023-04-24T06:36:00.544Z,1.00
2023-04-24T06:41:04.482Z,1.00
2023-04-24T06:46:09.406Z,0.85
2023-04-24T06:51:13.300Z,0.98
2023-04-24T06:56:16.853Z,1.00
2023-04-24T07:01:21.912Z,1.05
2023-04-24T07:06:25.559Z,1.10
2023-04-24T07:11:30.297Z,1.20
2023-04-24T07:16:35.725Z,0.80
2023-04-24T07:21:39.287Z,0.90
2023-04-24T07:26:42.987Z,0.80
2023-04-24T07:31:48.074Z,1.02
2023-04-24T07:36:52.127Z,1.17
2023-04-24T07:41:55.733Z,0.80
2023-04-24T07:47:00.764Z,1.10
2023-04-24T07:52:04.337Z,0.70
2023-04-24T07:57:09.298Z,0.70
2023-04-24T08:02:14.261Z,0.90
2023-04-24T08:07:18.100Z,0.85
2023-04-24T08:12:21.610Z,0.75
2023-04-24T08:17:26.887Z,0.88
2023-04-24T08:22:30.412Z,0.80
2023-04-24T08:27:33.901Z,0.80
2023-04-24T08:32:38.813Z,0.80
2023-04-24T08:37:42.713Z,0.90
2023-04-24T08:42:46.607Z,0.60
2023-04-24T08:47:52.151Z,0.70
2023-04-24T08:52:56.308Z,0.70
2023-04-24T08:58:00.590Z,0.50
2023-04-24T09:03:07.279Z,0.40
2023-04-24T09:08:12.491Z,0.50
2023-04-24T09:13:16.369Z,0.35
2023-04-24T09:18:22.062Z,0.45
2023-04-24T09:23:25.651Z,0.38
2023-04-24T09:28:29.717Z,0.50
2023-04-24T09:33:34.669Z,0.40
2023-04-24T09:38:38.666Z,0.50
2023-04-24T09:43:42.556Z,0.60
2023-04-24T09:48:47.434Z,0.50
2023-04-24T09:53:50.989Z,0.38
2023-04-24T09:59:06.820Z,0.40
2023-04-24T10:04:18.123Z,0.40
2023-04-24T10:09:22.386Z,0.50
2023-04-24T10:14:26.949Z,0.40
2023-04-24T10:19:32.493Z,0.40
2023-04-24T10:24:38.509Z,1.13
2023-04-24T10:29:44.710Z,0.40
2023-04-24T10:34:49.587Z,0.43
2023-04-24T10:39:55.694Z,0.43
2023-04-24T10:44:59.574Z,0.40
2023-04-24T10:50:05.193Z,0.50
2023-04-24T10:55:09.459Z,0.40
2023-04-24T11:00:16.287Z,0.40
2023-04-24T11:05:21.776Z,0.70
2023-04-24T11:10:29.389Z,0.65
2023-04-24T11:15:32.844Z,0.50
2023-04-24T11:20:37.794Z,0.50
2023-04-24T11:25:41.487Z,0.50
2023-04-24T11:30:45.015Z,0.50
2023-04-24T11:35:49.908Z,0.50
2023-04-24T11:40:54.071Z,0.50
2023-04-24T11:45:57.781Z,0.60
2023-04-24T11:51:04.582Z,0.50
2023-04-24T11:56:08.352Z,0.50
2023-04-24T12:01:12.193Z,0.60
2023-04-24T12:06:17.283Z,0.50
2023-04-24T12:11:20.922Z,0.70
2023-04-24T12:16:24.582Z,0.50
2023-04-24T12:21:31.438Z,0.50
2023-04-24T12:26:35.098Z,0.60
2023-04-24T12:31:38.696Z,0.50
2023-04-24T12:36:43.889Z,0.50
2023-04-24T12:42:02.706Z,0.60
2023-04-24T12:47:06.261Z,0.60
2023-04-24T12:52:11.209Z,0.60
2023-04-24T12:57:22.126Z,0.80
2023-04-24T13:02:25.940Z,0.70
2023-04-24T13:07:30.917Z,0.40
2023-04-24T13:12:34.462Z,0.70
2023-04-24T13:17:38.079Z,0.60
2023-04-24T13:22:43.204Z,0.70
2023-04-24T13:27:46.822Z,0.80
2023-04-24T13:32:50.519Z,0.50
2023-04-24T13:37:55.565Z,0.40
2023-04-24T13:42:59.194Z,0.60
2023-04-24T13:48:04.111Z,0.60
2023-04-24T13:53:09.174Z,0.40
2023-04-24T13:58:12.817Z,0.60
2023-04-24T14:03:17.208Z,0.70
2023-04-24T14:08:22.290Z,0.70
2023-04-24T14:13:26.006Z,0.93
2023-04-24T14:18:31.048Z,0.70
2023-04-24T14:23:36.412Z,0.50
2023-04-24T14:28:40.068Z,0.70
2023-04-24T14:33:43.857Z,0.55
2023-04-24T14:38:49.294Z,0.70
2023-04-24T14:43:52.906Z,0.70
2023-04-24T14:48:56.396Z,0.60
2023-04-24T14:54:01.262Z,0.50
2023-04-24T14:59:05.436Z,0.50
2023-04-24T15:04:09.055Z,0.52
2023-04-24T15:09:14.052Z,0.50
2023-04-24T15:14:17.608Z,0.47
2023-04-24T15:19:21.258Z,0.63
2023-04-24T15:24:26.300Z,0.60
2023-04-24T15:29:29.991Z,0.65
2023-04-24T15:34:33.859Z,1.85
2023-04-24T15:39:39.897Z,0.60
2023-04-24T15:44:45.474Z,0.75
2023-04-24T15:49:49.736Z,0.50
2023-04-24T15:54:54.883Z,0.50
2023-04-24T15:59:58.779Z,0.70
2023-04-24T16:05:02.526Z,0.80
2023-04-24T16:10:08.522Z,1.08
2023-04-24T16:15:13.088Z,0.68
2023-04-24T16:20:16.961Z,0.70
2023-04-24T16:25:22.466Z,0.70
2023-04-24T16:30:26.245Z,0.60
2023-04-24T16:35:29.885Z,0.60
2023-04-24T16:40:36.404Z,0.60
2023-04-24T16:45:40.235Z,0.43
2023-04-24T16:50:44.129Z,0.60
2023-04-24T16:55:51.078Z,0.70
2023-04-24T17:00:54.856Z,0.60
2023-04-24T17:05:58.431Z,0.80
2023-04-24T17:11:03.664Z,0.80
2023-04-24T17:16:07.530Z,0.82
2023-04-24T17:21:12.029Z,0.80
2023-04-24T17:26:18.309Z,1.63
2023-04-24T17:31:25.746Z,0.98
2023-04-24T17:36:30.829Z,0.90
2023-04-24T17:41:36.914Z,0.93
2023-04-24T17:46:43.143Z,0.95
2023-04-24T17:51:47.566Z,1.05
2023-04-24T17:56:55.571Z,1.00
2023-04-24T18:02:01.549Z,0.90
2023-04-24T18:07:06.123Z,0.98
2023-04-24T18:12:11.295Z,0.80
2023-04-24T18:17:15.563Z,0.77
2023-04-24T18:22:19.964Z,0.90
2023-04-24T18:27:25.801Z,0.80
2023-04-24T18:32:30.039Z,0.80
2023-04-24T18:37:34.799Z,0.70
2023-04-24T18:42:41.132Z,0.70
2023-04-24T18:47:45.852Z,0.80
2023-04-24T18:52:51.055Z,0.82
2023-04-24T18:57:56.558Z,0.90
2023-04-24T19:03:02.140Z,0.70
2023-04-24T19:08:06.470Z,1.10
2023-04-24T19:13:12.330Z,0.80
2023-04-24T19:18:17.625Z,0.82
2023-04-24T19:23:22.704Z,0.70
2023-04-24T19:28:28.512Z,0.75
2023-04-24T19:33:34.782Z,1.17
2023-04-24T19:38:39.042Z,0.88
2023-04-24T19:43:45.114Z,0.90
2023-04-24T19:48:49.967Z,0.88
2023-04-24T19:53:54.209Z,0.90
2023-04-24T19:59:00.497Z,0.90
2023-04-24T20:04:08.090Z,0.80
2023-04-24T20:09:12.364Z,1.00
2023-04-24T20:14:17.415Z,0.77
2023-04-24T20:19:21.230Z,0.70
2023-04-24T20:24:25.078Z,0.82
2023-04-24T20:29:30.244Z,1.00
2023-04-24T20:34:34.194Z,0.60
2023-04-24T20:39:38.893Z,0.80
2023-04-24T20:44:45.611Z,0.85
2023-04-24T20:49:49.402Z,0.70
2023-04-24T20:54:53.090Z,0.80
2023-04-24T20:59:58.049Z,0.75
2023-04-24T21:05:01.710Z,0.70
2023-04-24T21:10:05.295Z,0.80
2023-04-24T21:15:10.850Z,0.80
2023-04-24T21:20:14.672Z,0.90
2023-04-24T21:25:18.306Z,0.73
2023-04-24T21:30:24.973Z,0.80
2023-04-24T21:35:28.584Z,1.60
2023-04-24T21:40:32.256Z,0.80
2023-04-24T21:45:37.222Z,0.80
2023-04-24T21:50:41.006Z,0.90
2023-04-24T21:55:44.601Z,1.02
2023-04-24T22:00:49.849Z,0.70
2023-04-24T22:05:53.354Z,0.80
2023-04-24T22:10:56.922Z,1.02
2023-04-24T22:16:02.315Z,0.82
2023-04-24T22:21:06.056Z,0.70
2023-04-24T22:26:09.973Z,0.70
2023-04-24T22:31:15.029Z,0.90
2023-04-24T22:36:18.749Z,0.88
2023-04-24T22:41:23.353Z,0.90
2023-04-24T22:46:28.515Z,1.05
2023-04-24T22:51:33.579Z,0.90
2023-04-24T22:56:37.791Z,0.88
2023-04-24T23:01:42.770Z,0.90
2023-04-24T23:06:46.336Z,0.80
2023-04-24T23:11:49.903Z,0.95
2023-04-24T23:16:54.860Z,1.33
2023-04-24T23:21:58.487Z,1.02
2023-04-24T23:27:02.515Z,0.70
2023-04-24T23:32:07.748Z,0.90
2023-04-24T23:37:11.306Z,0.80
2023-04-24T23:42:14.843Z,0.90
2023-04-24T23:47:19.737Z,0.95
2023-04-24T23:52:23.520Z,0.75
2023-04-24T23:57:27.015Z,0.80
